Time;durP1;ratioP1;P1;durP2;ratioP2;P2;SDS_P1;SDS_P2;PMS_P1;PMS_P2;Temp;Humidity;BMP_temperature;BMP_pressure;BME280_temperature;BME280_humidity;BME280_pressure;Samples;Min_cycle;Max_cycle;Signal;HPM_P1;HPM_P2
2022/09/01 00:01:42;;;;;;;1.83;1.73;;;16.00;99.90;;;;;;5062493;28;20084;-73
2022/09/01 00:04:11;;;;;;;0.68;0.68;;;15.80;99.90;;;;;;5080348;28;20017;-73
2022/09/01 00:06:38;;;;;;;2.72;1.08;;;15.80;99.90;;;;;;5046103;28;20107;-73
2022/09/01 00:09:08;;;;;;;2.65;0.45;;;15.70;99.90;;;;;;5062891;28;20494;-73
2022/09/01 00:11:33;;;;;;;0.10;0.10;;;15.80;99.90;;;;;;5080225;28;20031;-74
2022/09/01 00:14:01;;;;;;;1.25;0.90;;;15.70;99.90;;;;;;5080410;28;20111;-73
2022/09/01 00:16:27;;;;;;;0.10;0.10;;;15.70;99.90;;;;;;5079623;28;20031;-73
2022/09/01 00:18:54;;;;;;;1.15;1.05;;;15.80;99.90;;;;;;5080077;28;20032;-74
2022/09/01 00:21:45;;;;;;;1.02;1.02;;;15.70;99.90;;;;;;5079842;28;20437;-74
2022/09/01 00:24:14;;;;;;;0.10;0.10;;;15.80;99.90;;;;;;5061330;28;20115;-74
2022/09/01 00:26:40;;;;;;;1.20;0.35;;;15.70;99.90;;;;;;5079574;28;20043;-74
2022/09/01 00:29:06;;;;;;;0.10;0.10;;;15.80;99.90;;;;;;5045234;28;20028;-74
2022/09/01 00:31:33;;;;;;;0.32;0.32;;;15.80;99.90;;;;;;5079564;28;20080;-74
2022/09/01 00:33:59;;;;;;;2.92;1.75;;;15.80;99.90;;;;;;5045063;28;20025;-74
2022/09/01 00:36:24;;;;;;;1.80;1.05;;;15.80;99.90;;;;;;5062342;28;20039;-73
2022/09/01 00:38:51;;;;;;;3.72;1.95;;;15.70;99.90;;;;;;5079848;28;20020;-73
2022/09/01 00:41:20;;;;;;;0.57;0.50;;;15.70;99.90;;;;;;5078675;28;20024;-77
2022/09/01 00:44:04;;;;;;;0.73;0.73;;;15.70;99.90;;;;;;5057065;28;20051;-77
2022/09/01 00:46:33;;;;;;;1.38;1.27;;;15.70;99.90;;;;;;5056830;28;20116;-77
2022/09/01 00:49:05;;;;;;;0.10;0.10;;;15.70;99.90;;;;;;5074765;28;20021;-77
2022/09/01 00:51:33;;;;;;;4.65;1.25;;;15.80;99.90;;;;;;5074755;28;20510;-77
2022/09/01 00:54:00;;;;;;;0.10;0.10;;;15.80;99.90;;;;;;5074672;28;20024;-77
2022/09/01 00:56:27;;;;;;;0.35;0.35;;;15.90;99.90;;;;;;5056329;28;20024;-77
2022/09/01 00:58:53;;;;;;;0.38;0.38;;;15.80;99.90;;;;;;5074693;28;20040;-77
2022/09/01 01:01:19;;;;;;;0.00;0.00;;;15.90;99.90;;;;;;5056631;28;20484;-77
2022/09/01 01:03:45;;;;;;;0.10;0.10;;;16.00;99.90;;;;;;5056569;28;20028;-77
2022/09/01 01:06:15;;;;;;;0.10;0.10;;;16.00;99.90;;;;;;5074424;28;20028;-77
2022/09/01 01:08:50;;;;;;;0.05;0.05;;;16.10;99.90;;;;;;5074552;28;20111;-77
2022/09/01 01:11:16;;;;;;;2.20;2.10;;;16.10;99.90;;;;;;5056547;28;20510;-77
2022/09/01 01:13:53;;;;;;;0.32;0.32;;;16.00;99.90;;;;;;5074502;28;20052;-77
2022/09/01 01:16:20;;;;;;;0.55;0.55;;;16.10;99.90;;;;;;5056533;28;20123;-77
2022/09/01 01:18:46;;;;;;;0.10;0.10;;;16.00;99.90;;;;;;5074318;28;20040;-77
2022/09/01 01:24:33;;;;;;;0.10;0.10;;;16.10;99.90;;;;;;5074366;28;20032;-77
2022/09/01 01:27:00;;;;;;;2.72;2.15;;;16.00;99.90;;;;;;5073978;28;20456;-77
2022/09/01 01:29:30;;;;;;;0.10;0.10;;;16.00;99.90;;;;;;5074175;28;20024;-77
2022/09/01 01:31:57;;;;;;;0.55;0.55;;;16.00;99.90;;;;;;5073913;28;20024;-77
2022/09/01 01:34:23;;;;;;;0.32;0.32;;;16.10;99.90;;;;;;5056112;28;20054;-77
2022/09/01 01:36:49;;;;;;;1.23;1.13;;;16.00;99.90;;;;;;5073771;28;20099;-77
2022/09/01 01:39:24;;;;;;;0.10;0.10;;;16.00;99.90;;;;;;5073928;28;20025;-77
2022/09/01 01:41:51;;;;;;;0.00;0.00;;;15.90;99.90;;;;;;5055860;28;20088;-77
2022/09/01 01:44:23;;;;;;;0.10;0.10;;;15.90;99.90;;;;;;5073852;28;20536;-77
2022/09/01 01:46:51;;;;;;;2.97;2.78;;;16.00;99.90;;;;;;5055723;28;20025;-77
2022/09/01 01:49:21;;;;;;;0.20;0.20;;;16.00;99.90;;;;;;5073382;28;20150;-77
2022/09/01 01:51:51;;;;;;;0.73;0.73;;;15.90;99.90;;;;;;5073470;28;20028;-77
2022/09/01 01:54:18;;;;;;;1.08;1.00;;;15.90;99.90;;;;;;5073660;28;20032;-77
2022/09/01 01:56:44;;;;;;;1.23;1.20;;;15.90;99.90;;;;;;5073383;28;20017;-77
2022/09/01 01:59:15;;;;;;;0.20;0.20;;;15.90;99.90;;;;;;5073511;28;20038;-77
2022/09/01 02:01:43;;;;;;;0.33;0.33;;;15.80;99.90;;;;;;5073278;28;20029;-77
2022/09/01 02:04:10;;;;;;;0.65;0.30;;;15.70;99.90;;;;;;5073375;28;20024;-77
2022/09/01 02:06:40;;;;;;;0.20;0.20;;;15.70;99.90;;;;;;5073296;28;20078;-77
2022/09/01 02:09:07;;;;;;;0.30;0.30;;;15.70;99.90;;;;;;5072497;28;20012;-77
2022/09/01 02:11:36;;;;;;;0.10;0.10;;;15.60;99.90;;;;;;5073264;28;20049;-77
2022/09/01 02:14:03;;;;;;;0.20;0.20;;;15.80;99.90;;;;;;5055278;28;20024;-77
2022/09/01 02:16:31;;;;;;;0.10;0.10;;;15.70;99.90;;;;;;5072976;28;20491;-77
2022/09/01 02:18:58;;;;;;;7.55;2.53;;;15.80;99.90;;;;;;5073150;28;20021;-77
2022/09/01 02:21:25;;;;;;;0.30;0.30;;;15.90;99.90;;;;;;5072921;28;20048;-77
2022/09/01 02:24:01;;;;;;;0.00;0.00;;;16.00;99.90;;;;;;5073000;28;20027;-77
2022/09/01 02:26:38;;;;;;;0.55;0.38;;;16.00;99.90;;;;;;5072755;28;20427;-77
2022/09/01 02:29:08;;;;;;;0.35;0.35;;;16.10;99.90;;;;;;5072888;28;20025;-77
2022/09/01 02:31:38;;;;;;;0.45;0.45;;;15.90;99.90;;;;;;5072807;28;20025;-77
2022/09/01 02:34:12;;;;;;;2.90;1.38;;;16.00;99.90;;;;;;5072787;28;20025;-77
2022/09/01 02:36:46;;;;;;;2.30;1.45;;;16.00;99.90;;;;;;5072620;28;20480;-77
2022/09/01 02:39:18;;;;;;;2.38;1.40;;;15.80;99.90;;;;;;5072711;28;20013;-77
2022/09/01 02:41:44;;;;;;;0.10;0.10;;;15.70;99.90;;;;;;5072444;28;20020;-77
2022/09/01 02:44:10;;;;;;;1.90;1.52;;;15.70;99.90;;;;;;5054955;28;20032;-77
2022/09/01 02:46:40;;;;;;;0.45;0.43;;;15.60;99.90;;;;;;5072442;28;20494;-77
2022/09/01 02:49:14;;;;;;;2.72;2.40;;;15.50;99.90;;;;;;5072845;28;20017;-77
2022/09/01 02:51:45;;;;;;;0.43;0.43;;;15.50;99.90;;;;;;5037944;28;20090;-77
2022/09/01 02:54:17;;;;;;;1.10;1.10;;;15.60;99.90;;;;;;5072579;28;20383;-77
2022/09/01 02:56:48;;;;;;;0.10;0.10;;;15.60;99.90;;;;;;5072262;28;20047;-77
2022/09/01 02:59:15;;;;;;;0.32;0.32;;;15.70;99.90;;;;;;5054568;28;20443;-77
2022/09/01 03:01:41;;;;;;;1.25;0.77;;;15.60;99.90;;;;;;5054125;28;20396;-77
2022/09/01 03:04:08;;;;;;;0.20;0.20;;;15.80;99.90;;;;;;5072289;28;20040;-77
2022/09/01 03:06:36;;;;;;;0.20;0.20;;;15.70;99.90;;;;;;5072104;28;20016;-77
2022/09/01 03:09:07;;;;;;;0.35;0.35;;;15.80;99.90;;;;;;5072343;28;20020;-77
2022/09/01 03:11:35;;;;;;;0.50;0.50;;;15.80;99.90;;;;;;5054418;28;20047;-77
2022/09/01 03:14:01;;;;;;;0.20;0.20;;;15.70;99.90;;;;;;5072621;28;20036;-77
2022/09/01 03:16:29;;;;;;;0.35;0.35;;;15.70;99.90;;;;;;5053907;28;20021;-77
2022/09/01 03:18:55;;;;;;;4.10;2.45;;;15.60;99.90;;;;;;5072081;28;20020;-77
2022/09/01 03:21:22;;;;;;;0.65;0.65;;;15.60;99.90;;;;;;5071834;28;20539;-77
2022/09/01 03:23:49;;;;;;;0.38;0.38;;;15.50;99.90;;;;;;5054078;28;20396;-77
2022/09/01 03:26:17;;;;;;;0.17;0.17;;;15.50;99.90;;;;;;5053879;28;20033;-77
2022/09/01 03:28:44;;;;;;;0.10;0.10;;;15.40;99.90;;;;;;5071973;28;20013;-77
2022/09/01 03:31:09;;;;;;;0.10;0.10;;;15.50;99.90;;;;;;5071956;28;20024;-77
2022/09/01 03:33:35;;;;;;;0.10;0.10;;;15.40;99.90;;;;;;5054074;28;20020;-77
2022/09/01 03:36:01;;;;;;;0.15;0.15;;;15.50;99.90;;;;;;5053782;28;20024;-77
2022/09/01 03:38:27;;;;;;;0.10;0.10;;;15.50;99.90;;;;;;5071952;28;20392;-77
2022/09/01 03:41:04;;;;;;;1.75;1.30;;;15.50;99.90;;;;;;5071775;28;20106;-77
2022/09/01 03:43:32;;;;;;;0.10;0.10;;;15.40;99.90;;;;;;5071555;28;20020;-77
2022/09/01 03:45:59;;;;;;;0.10;0.10;;;15.50;99.90;;;;;;5071684;28;20028;-77
2022/09/01 03:48:27;;;;;;;0.30;0.30;;;15.60;99.90;;;;;;5071568;28;20468;-77
2022/09/01 03:50:57;;;;;;;0.45;0.45;;;15.60;99.90;;;;;;5053790;28;20060;-77
2022/09/01 03:53:26;;;;;;;0.38;0.28;;;15.50;99.90;;;;;;5053588;28;20082;-77
2022/09/01 03:55:56;;;;;;;0.55;0.55;;;15.30;99.90;;;;;;5053851;28;20024;-77
2022/09/01 03:58:23;;;;;;;0.47;0.40;;;15.30;99.90;;;;;;5053746;28;20033;-77
2022/09/01 04:00:54;;;;;;;4.75;3.80;;;15.40;99.90;;;;;;5071740;28;20086;-77
2022/09/01 04:03:23;;;;;;;0.17;0.17;;;15.30;99.90;;;;;;5071626;28;20106;-77
2022/09/01 04:05:51;;;;;;;0.32;0.32;;;15.20;99.90;;;;;;5071413;28;20047;-77
2022/09/01 04:08:19;;;;;;;0.73;0.55;;;15.20;99.90;;;;;;5071592;28;20035;-77
2022/09/01 04:10:53;;;;;;;0.00;0.00;;;15.20;99.90;;;;;;5071680;28;20025;-77
2022/09/01 04:13:25;;;;;;;0.10;0.10;;;15.10;99.90;;;;;;5071495;28;20033;-77
2022/09/01 04:15:51;;;;;;;0.10;0.10;;;15.00;99.90;;;;;;5071476;28;20044;-77
2022/09/01 04:18:20;;;;;;;0.68;0.68;;;14.90;99.90;;;;;;5053497;28;20029;-77
2022/09/01 04:20:51;;;;;;;0.20;0.20;;;15.00;99.90;;;;;;5071540;28;20066;-77
2022/09/01 04:23:25;;;;;;;0.52;0.52;;;15.00;99.90;;;;;;5071352;28;20476;-77
2022/09/01 04:25:55;;;;;;;0.10;0.10;;;15.00;99.90;;;;;;5085476;22;20020;-73
2022/09/01 04:28:24;;;;;;;0.10;0.10;;;15.00;99.90;;;;;;5031932;28;20116;-72
2022/09/01 04:31:04;;;;;;;0.50;0.50;;;14.90;99.90;;;;;;5033676;28;20475;-73
2022/09/01 04:33:35;;;;;;;0.85;0.68;;;14.90;99.90;;;;;;5055032;28;20464;-73
2022/09/01 04:36:04;;;;;;;5.90;3.45;;;14.80;99.90;;;;;;5037354;28;20029;-73
2022/09/01 04:38:30;;;;;;;0.10;0.10;;;14.90;99.90;;;;;;5055222;28;20033;-72
2022/09/01 04:40:56;;;;;;;0.10;0.10;;;14.80;99.90;;;;;;5055072;28;20039;-72
2022/09/01 04:43:23;;;;;;;0.80;0.80;;;14.90;99.90;;;;;;5054671;28;20029;-73
2022/09/01 04:45:50;;;;;;;0.10;0.10;;;14.90;99.90;;;;;;5054731;28;20017;-74
2022/09/01 04:48:20;;;;;;;0.20;0.20;;;15.00;99.90;;;;;;5036877;28;20076;-73
2022/09/01 04:50:48;;;;;;;0.10;0.10;;;14.90;99.90;;;;;;5036956;28;20495;-73
2022/09/01 04:53:17;;;;;;;0.28;0.28;;;15.00;99.90;;;;;;5054512;28;20029;-73
2022/09/01 04:55:43;;;;;;;0.30;0.30;;;14.90;99.90;;;;;;5036623;28;20392;-73
2022/09/01 04:58:12;;;;;;;0.10;0.10;;;14.80;99.90;;;;;;5054616;28;20389;-73
2022/09/01 05:00:39;;;;;;;0.10;0.10;;;14.80;99.90;;;;;;5054569;28;20021;-73
2022/09/01 05:03:05;;;;;;;0.10;0.10;;;14.90;99.90;;;;;;5054323;28;20057;-73
2022/09/01 05:05:38;;;;;;;0.10;0.10;;;14.80;99.90;;;;;;5036463;28;20105;-74
2022/09/01 05:08:05;;;;;;;0.38;0.38;;;15.00;99.90;;;;;;5036165;28;20166;-73
2022/09/01 05:10:33;;;;;;;2.30;1.83;;;15.00;99.90;;;;;;5036458;28;20017;-74
2022/09/01 05:13:00;;;;;;;1.65;1.20;;;14.90;99.90;;;;;;5054197;28;20112;-73
2022/09/01 05:15:26;;;;;;;3.83;0.90;;;14.70;99.90;;;;;;5054122;28;20049;-73
2022/09/01 05:17:53;;;;;;;0.63;0.63;;;14.60;99.90;;;;;;5054244;28;20052;-74
2022/09/01 05:20:20;;;;;;;1.10;0.95;;;14.60;99.90;;;;;;5019619;28;20074;-73
2022/09/01 05:22:46;;;;;;;8.27;2.13;;;14.50;99.90;;;;;;5019474;28;20029;-73
2022/09/01 05:25:12;;;;;;;3.03;1.60;;;14.50;99.90;;;;;;5053919;28;20094;-73
2022/09/01 05:27:48;;;;;;;0.55;0.55;;;14.50;99.90;;;;;;5035933;28;20029;-73
2022/09/01 05:30:16;;;;;;;0.30;0.30;;;14.50;99.90;;;;;;5054134;28;20104;-74
2022/09/01 05:32:43;;;;;;;0.35;0.35;;;14.50;99.90;;;;;;5035846;28;20033;-73
2022/09/01 05:35:09;;;;;;;2.60;2.05;;;14.60;99.90;;;;;;5036681;28;20486;-73
2022/09/01 05:37:39;;;;;;;6.68;1.95;;;14.70;99.90;;;;;;5053807;28;20049;-73
2022/09/01 05:40:08;;;;;;;2.72;2.55;;;14.70;99.90;;;;;;5053164;28;20021;-73
2022/09/01 05:42:38;;;;;;;0.10;0.10;;;14.60;99.90;;;;;;5035508;28;20056;-74
2022/09/01 05:45:05;;;;;;;2.65;2.05;;;14.60;99.90;;;;;;5035553;28;20032;-74
2022/09/01 05:47:35;;;;;;;1.98;1.23;;;14.70;99.90;;;;;;5053443;28;20127;-73
2022/09/01 05:50:02;;;;;;;2.75;1.20;;;14.70;99.90;;;;;;5019131;28;20063;-74
2022/09/01 05:52:32;;;;;;;0.20;0.20;;;14.80;99.90;;;;;;5052775;28;20021;-73
2022/09/01 05:54:58;;;;;;;0.55;0.55;;;14.90;99.90;;;;;;5059645;28;20021;-73
2022/09/01 05:57:25;;;;;;;2.28;2.00;;;14.90;99.90;;;;;;5055090;28;20031;-73
2022/09/01 05:59:52;;;;;;;0.25;0.25;;;15.00;99.90;;;;;;5072842;28;20354;-73
2022/09/01 06:02:22;;;;;;;0.35;0.35;;;15.00;99.90;;;;;;5062663;28;20176;-73
2022/09/01 06:04:48;;;;;;;0.20;0.20;;;15.20;99.90;;;;;;5041825;28;20024;-74
2022/09/01 06:07:16;;;;;;;0.40;0.40;;;15.20;99.90;;;;;;5044956;28;20025;-73
2022/09/01 06:09:47;;;;;;;0.40;0.40;;;15.20;99.90;;;;;;5035102;28;20025;-73
2022/09/01 06:12:22;;;;;;;0.85;0.85;;;15.00;99.90;;;;;;5031635;28;20056;-73
2022/09/01 06:14:50;;;;;;;0.30;0.30;;;15.00;99.90;;;;;;5015634;28;20452;-73
2022/09/01 06:17:20;;;;;;;1.13;1.02;;;15.10;99.90;;;;;;5031653;28;20025;-73
2022/09/01 06:19:47;;;;;;;0.85;0.85;;;15.00;99.90;;;;;;5033154;28;20484;-73
2022/09/01 06:22:13;;;;;;;0.50;0.50;;;15.10;99.90;;;;;;5031808;28;20025;-73
2022/09/01 06:24:39;;;;;;;0.15;0.15;;;15.10;99.90;;;;;;5040007;28;20018;-74
2022/09/01 06:27:08;;;;;;;0.55;0.55;;;15.00;99.90;;;;;;5052342;28;20383;-74
2022/09/01 06:29:38;;;;;;;2.60;0.85;;;15.00;99.90;;;;;;5035154;28;20028;-73
2022/09/01 06:32:08;;;;;;;0.77;0.68;;;15.10;99.90;;;;;;5031584;28;20043;-73
2022/09/01 06:34:37;;;;;;;0.10;0.10;;;15.20;99.90;;;;;;5023182;28;20044;-73
2022/09/01 06:37:03;;;;;;;0.10;0.10;;;15.20;99.90;;;;;;5021221;28;20025;-73
2022/09/01 06:39:30;;;;;;;0.35;0.35;;;15.20;99.90;;;;;;5014959;28;20155;-74
2022/09/01 06:41:57;;;;;;;2.90;1.17;;;15.20;99.90;;;;;;5046101;28;20033;-74
2022/09/01 06:44:23;;;;;;;0.10;0.10;;;15.30;99.90;;;;;;5052369;28;20480;-73
2022/09/01 06:46:50;;;;;;;2.22;1.40;;;15.40;99.90;;;;;;5052384;28;20021;-73
2022/09/01 06:49:16;;;;;;;0.10;0.10;;;15.50;99.90;;;;;;5034682;28;20358;-73
2022/09/01 06:51:43;;;;;;;0.50;0.50;;;15.40;99.90;;;;;;5052542;28;20025;-74
2022/09/01 06:54:13;;;;;;;0.30;0.30;;;15.40;99.90;;;;;;5050880;28;20534;-73
2022/09/01 06:56:40;;;;;;;0.20;0.20;;;15.50;99.90;;;;;;5050017;28;20392;-73
2022/09/01 06:59:06;;;;;;;3.15;2.85;;;15.40;99.90;;;;;;5051597;28;20423;-73
2022/09/01 07:01:33;;;;;;;2.47;2.08;;;15.50;99.90;;;;;;5052024;28;20029;-74
2022/09/01 07:04:00;;;;;;;1.33;1.08;;;15.50;99.90;;;;;;5049223;28;20021;-73
2022/09/01 07:06:26;;;;;;;0.60;0.60;;;15.70;99.90;;;;;;5067029;28;20476;-73
2022/09/01 07:08:54;;;;;;;0.93;0.93;;;15.80;99.90;;;;;;5031936;28;20021;-73
2022/09/01 07:11:26;;;;;;;0.75;0.57;;;15.80;99.90;;;;;;5032861;28;20151;-73
2022/09/01 07:13:57;;;;;;;0.15;0.15;;;15.80;99.90;;;;;;5012123;28;20035;-71
2022/09/01 07:16:25;;;;;;;0.75;0.75;;;15.90;99.90;;;;;;5017945;28;20140;-71
2022/09/01 07:18:57;;;;;;;0.65;0.65;;;16.00;99.90;;;;;;5037404;28;20052;-72
2022/09/01 07:21:23;;;;;;;;;;;16.00;99.90;;;;;;5022068;28;20035;-71
2022/09/01 07:23:50;;;;;;;0.65;0.65;;;16.20;99.90;;;;;;5019344;28;20397;-71
2022/09/01 07:26:19;;;;;;;0.40;0.40;;;16.20;99.90;;;;;;5001551;28;20029;-72
2022/09/01 07:28:46;;;;;;;0.10;0.10;;;16.00;99.90;;;;;;5014221;28;20033;-73
2022/09/01 07:31:26;;;;;;;1.77;0.25;;;16.20;99.90;;;;;;5031890;28;20025;-73
2022/09/01 07:33:54;;;;;;;0.30;0.30;;;16.30;99.90;;;;;;5030216;28;20477;-73
2022/09/01 07:36:20;;;;;;;0.10;0.10;;;16.30;99.90;;;;;;5034534;28;20044;-73
2022/09/01 07:38:52;;;;;;;0.57;0.57;;;16.40;99.90;;;;;;5007280;28;20563;-72
2022/09/01 07:41:19;;;;;;;;;;;16.40;99.90;;;;;;5030828;28;20481;-73
2022/09/01 07:43:45;;;;;;;0.50;0.50;;;16.30;99.90;;;;;;5033779;28;19917;-73
2022/09/01 07:46:11;;;;;;;2.40;2.10;;;16.50;99.90;;;;;;5019068;28;20037;-73
2022/09/01 07:48:37;;;;;;;2.70;1.85;;;16.50;99.90;;;;;;5030193;28;20040;-74
2022/09/01 07:51:04;;;;;;;0.20;0.20;;;16.50;99.90;;;;;;5017005;28;20029;-73
2022/09/01 07:53:34;;;;;;;4.60;1.67;;;16.70;99.90;;;;;;5021325;28;20100;-71
2022/09/01 07:56:07;;;;;;;0.10;0.10;;;17.00;99.90;;;;;;5020575;28;20115;-72
2022/09/01 07:58:34;;;;;;;0.30;0.30;;;17.10;99.90;;;;;;5018735;28;20020;-73
2022/09/01 08:01:01;;;;;;;1.52;1.45;;;17.30;99.90;;;;;;5019985;28;20037;-70
2022/09/01 08:03:28;;;;;;;1.13;0.75;;;17.40;99.90;;;;;;5038924;28;20037;-73
2022/09/01 08:05:59;;;;;;;1.48;1.38;;;17.50;99.90;;;;;;5009866;28;20025;-73
2022/09/01 08:08:25;;;;;;;0.10;0.10;;;17.30;99.90;;;;;;5042583;28;20025;-73
2022/09/01 08:10:52;;;;;;;2.53;1.45;;;17.40;99.90;;;;;;5008754;28;20095;-73
2022/09/01 08:13:18;;;;;;;0.38;0.38;;;17.70;99.90;;;;;;5022793;28;20033;-72
2022/09/01 08:15:44;;;;;;;0.00;0.00;;;17.80;99.90;;;;;;5033396;28;20029;-73
2022/09/01 08:18:10;;;;;;;0.38;0.38;;;18.00;99.90;;;;;;5020400;28;20044;-73
2022/09/01 08:20:44;;;;;;;0.20;0.20;;;18.10;99.90;;;;;;4996302;28;20039;-72
2022/09/01 08:23:11;;;;;;;1.17;0.68;;;17.90;99.90;;;;;;5036065;28;20442;-71
2022/09/01 08:25:38;;;;;;;2.28;0.52;;;17.80;99.90;;;;;;5023407;28;20036;-73
2022/09/01 08:28:05;;;;;;;1.40;1.30;;;17.70;99.90;;;;;;5023864;28;20500;-70
2022/09/01 08:30:34;;;;;;;1.05;0.95;;;17.70;99.90;;;;;;5024233;28;20540;-71
2022/09/01 08:33:01;;;;;;;0.50;0.50;;;17.60;99.90;;;;;;5007257;28;20036;-73
2022/09/01 08:35:28;;;;;;;0.10;0.10;;;17.50;99.90;;;;;;5023258;28;20369;-72
2022/09/01 08:37:55;;;;;;;1.75;1.45;;;17.50;99.90;;;;;;5041861;28;20122;-73
2022/09/01 08:40:22;;;;;;;0.25;0.25;;;17.60;99.90;;;;;;5008119;28;20139;-72
2022/09/01 08:43:01;;;;;;;1.85;1.38;;;17.60;99.90;;;;;;5041058;28;20545;-73
2022/09/01 08:45:36;;;;;;;1.15;0.52;;;17.60;99.90;;;;;;5036767;28;20033;-70
2022/09/01 08:48:27;;;;;;;1.42;1.17;;;17.40;99.90;;;;;;5035956;28;20045;-73
2022/09/01 08:51:02;;;;;;;1.98;1.00;;;17.30;99.90;;;;;;5030902;28;20021;-73
2022/09/01 08:53:35;;;;;;;0.95;0.95;;;17.20;99.90;;;;;;5020005;28;20038;-73
2022/09/01 08:56:01;;;;;;;3.08;1.67;;;17.20;99.90;;;;;;5027384;28;20400;-73
2022/09/01 08:58:30;;;;;;;0.30;0.30;;;17.40;99.90;;;;;;5038983;28;20053;-74
2022/09/01 09:01:02;;;;;;;0.93;0.93;;;17.30;99.90;;;;;;5012828;28;20033;-74
2022/09/01 09:03:41;;;;;;;0.13;0.13;;;17.40;99.90;;;;;;4996019;28;20516;-74
2022/09/01 09:06:20;;;;;;;1.90;1.80;;;17.70;99.90;;;;;;5036454;28;20032;-72
2022/09/01 09:08:58;;;;;;;0.57;0.45;;;17.70;99.90;;;;;;5038202;28;20189;-71
2022/09/01 09:11:30;;;;;;;0.45;0.45;;;17.80;99.90;;;;;;5035031;28;20028;-72
2022/09/01 09:13:58;;;;;;;1.88;0.65;;;17.80;99.90;;;;;;5039777;28;20565;-73
2022/09/01 09:16:36;;;;;;;0.98;0.98;;;17.80;99.90;;;;;;5022800;28;20040;-71
2022/09/01 09:19:19;;;;;;;0.45;0.45;;;17.80;99.90;;;;;;5023455;28;20094;-74
2022/09/01 09:21:47;;;;;;;0.20;0.20;;;18.00;99.90;;;;;;5017596;28;20116;-74
2022/09/01 09:24:46;;;;;;;0.20;0.20;;;18.20;99.90;;;;;;5036351;28;20148;-74
2022/09/01 09:27:25;;;;;;;7.35;2.88;;;18.50;99.90;;;;;;5021394;28;20154;-72
2022/09/01 09:29:54;;;;;;;2.22;1.50;;;18.90;99.90;;;;;;5039334;28;20158;-74
2022/09/01 09:32:21;;;;;;;1.65;1.55;;;19.20;99.90;;;;;;5033230;28;20068;-75
2022/09/01 09:34:48;;;;;;;2.65;1.45;;;19.60;99.90;;;;;;5032634;28;20488;-74
2022/09/01 09:37:40;;;;;;;1.85;1.45;;;19.30;99.90;;;;;;5010518;28;20033;-72
2022/09/01 09:40:14;;;;;;;0.65;0.65;;;19.10;99.90;;;;;;5018795;28;20065;-71
2022/09/01 09:42:59;;;;;;;0.10;0.10;;;19.30;99.90;;;;;;5030186;28;20033;-74
2022/09/01 09:45:27;;;;;;;2.25;1.38;;;19.40;99.90;;;;;;5035710;28;20792;-72
2022/09/01 09:47:56;;;;;;;1.83;1.63;;;19.20;99.90;;;;;;5037039;28;20025;-75
2022/09/01 09:50:27;;;;;;;1.00;0.60;;;19.20;99.90;;;;;;5018960;28;20452;-75
2022/09/01 09:53:27;;;;;;;0.10;0.10;;;19.40;99.90;;;;;;4995140;28;20029;-74
2022/09/01 09:56:03;;;;;;;0.10;0.10;;;19.60;99.90;;;;;;5014049;28;20061;-74
2022/09/01 09:58:39;;;;;;;0.50;0.50;;;20.20;99.90;;;;;;5017262;28;20112;-72
2022/09/01 10:01:28;;;;;;;1.17;1.13;;;20.90;99.90;;;;;;5035226;28;20040;-73
2022/09/01 10:03:57;;;;;;;0.50;0.50;;;21.20;99.90;;;;;;5013876;28;20465;-74
2022/09/01 10:06:46;;;;;;;4.75;2.35;;;21.50;99.90;;;;;;5018859;28;20063;-73
2022/09/01 10:09:21;;;;;;;0.10;0.10;;;21.30;99.90;;;;;;5011209;28;20021;-74
2022/09/01 10:11:57;;;;;;;1.30;0.90;;;21.50;99.90;;;;;;5037847;28;20044;-74
2022/09/01 10:14:46;;;;;;;0.55;0.52;;;21.80;99.90;;;;;;5021268;28;20112;-74
2022/09/01 10:17:34;;;;;;;0.55;0.55;;;21.10;99.90;;;;;;5039391;28;20080;-74
2022/09/01 10:20:12;;;;;;;5.68;2.05;;;20.90;99.90;;;;;;5036663;28;20037;-73
2022/09/01 10:22:38;;;;;;;0.30;0.30;;;21.00;99.90;;;;;;5040234;28;20033;-72
2022/09/01 10:25:07;;;;;;;1.60;1.50;;;21.10;99.90;;;;;;5024136;28;20020;-73
2022/09/01 10:27:41;;;;;;;1.92;1.25;;;21.40;99.90;;;;;;5013380;28;20043;-72
2022/09/01 10:30:16;;;;;;;0.60;0.60;;;21.30;99.90;;;;;;5014980;28;20032;-72
2022/09/01 10:32:46;;;;;;;0.70;0.38;;;21.30;99.90;;;;;;5035149;28;20040;-73
2022/09/01 10:35:24;;;;;;;5.13;1.05;;;21.90;99.90;;;;;;5019093;28;20465;-73
2022/09/01 10:37:52;;;;;;;2.53;1.73;;;21.40;99.90;;;;;;5016946;28;20030;-73
2022/09/01 10:40:27;;;;;;;1.90;1.00;;;21.30;99.90;;;;;;5005608;28;20036;-71
2022/09/01 10:43:48;;;;;;;4.65;3.22;;;21.10;99.90;;;;;;5042466;23;20626;-93
2022/09/01 10:46:28;;;;;;;5.05;2.08;;;21.70;99.90;;;;;;4996365;28;20033;-91
2022/09/01 10:49:03;;;;;;;0.15;0.15;;;21.60;99.90;;;;;;4993744;28;20025;-91
2022/09/01 10:51:32;;;;;;;0.20;0.20;;;21.90;99.90;;;;;;4989235;28;20356;-93
2022/09/01 10:58:01;;;;;;;0.30;0.30;;;22.00;99.90;;;;;;4991887;28;20148;-91
2022/09/01 11:00:30;;;;;;;0.10;0.10;;;22.60;97.10;;;;;;4988774;28;20420;-93
2022/09/01 11:03:12;;;;;;;1.85;1.55;;;23.00;97.20;;;;;;4991674;28;20121;-91
2022/09/01 11:05:53;;;;;;;1.52;0.47;;;23.30;94.40;;;;;;5010564;23;20645;-75
2022/09/01 11:08:27;;;;;;;4.72;1.33;;;23.60;94.10;;;;;;5058373;28;20036;-75
2022/09/01 11:11:09;;;;;;;0.47;0.47;;;23.40;92.30;;;;;;5058840;28;20071;-75
2022/09/01 11:13:41;;;;;;;;;;;23.20;92.90;;;;;;5053550;28;20032;-76
2022/09/01 11:16:35;;;;;;;3.75;2.50;;;23.10;91.50;;;;;;5045626;28;19912;-75
2022/09/01 11:19:23;;;;;;;0.85;0.47;;;22.80;92.90;;;;;;5046732;28;20508;-76
2022/09/01 11:22:07;;;;;;;0.47;0.47;;;23.10;91.90;;;;;;5045233;28;20029;-76
2022/09/01 11:24:43;;;;;;;0.75;0.75;;;23.60;88.80;;;;;;5051453;28;20117;-75
2022/09/01 11:27:47;;;;;;;0.20;0.20;;;22.90;89.10;;;;;;5047766;28;20021;-75
2022/09/01 11:30:17;;;;;;;0.90;0.90;;;22.10;91.80;;;;;;5045861;28;20025;-75
2022/09/01 11:32:46;;;;;;;0.00;0.00;;;21.50;92.90;;;;;;5044650;28;20063;-75
2022/09/01 11:35:18;;;;;;;0.30;0.22;;;21.30;94.10;;;;;;5045021;28;20033;-75
2022/09/01 11:37:49;;;;;;;2.40;1.75;;;21.60;94.30;;;;;;5046633;28;20032;-75
2022/09/01 11:40:22;;;;;;;1.40;1.30;;;21.60;92.90;;;;;;5031764;28;20054;-75
2022/09/01 11:42:52;;;;;;;2.67;2.47;;;21.30;93.40;;;;;;5048738;28;20024;-75
2022/09/01 11:45:29;;;;;;;1.33;1.05;;;21.20;93.90;;;;;;5033485;28;20028;-75
2022/09/01 11:48:01;;;;;;;0.10;0.10;;;21.00;93.80;;;;;;5033033;28;20037;-75
2022/09/01 11:50:33;;;;;;;0.80;0.50;;;20.90;94.70;;;;;;5049076;28;20786;-75
2022/09/01 11:53:06;;;;;;;0.82;0.57;;;21.60;94.70;;;;;;5048627;28;20449;-75
2022/09/01 11:55:34;;;;;;;0.95;0.80;;;21.90;92.30;;;;;;5044222;28;20056;-75
2022/09/01 11:58:00;;;;;;;0.10;0.10;;;21.40;92.70;;;;;;5035459;28;21754;-75
2022/09/01 12:00:31;;;;;;;0.10;0.10;;;21.70;92.90;;;;;;5033573;28;20514;-77
2022/09/01 12:02:58;;;;;;;1.45;1.33;;;22.20;92.70;;;;;;5019813;28;20033;-78
2022/09/01 12:05:37;;;;;;;2.60;2.38;;;21.90;91.90;;;;;;5034351;28;20040;-79
2022/09/01 12:08:18;;;;;;;2.38;0.93;;;21.50;92.80;;;;;;5034372;28;20896;-78
2022/09/01 12:10:45;;;;;;;0.10;0.10;;;21.70;92.80;;;;;;5035815;28;20726;-78
2022/09/01 12:13:22;;;;;;;1.65;1.40;;;22.00;92.60;;;;;;5033726;28;20079;-78
2022/09/01 12:16:09;;;;;;;2.20;2.08;;;22.20;91.30;;;;;;5034926;28;20024;-77
2022/09/01 12:18:50;;;;;;;0.25;0.20;;;21.50;92.40;;;;;;5050894;28;20036;-77
2022/09/01 12:21:39;;;;;;;0.30;0.30;;;21.40;93.10;;;;;;5053429;28;20046;-78
2022/09/01 12:24:17;;;;;;;0.68;0.38;;;21.00;92.10;;;;;;5033917;28;20040;-76
2022/09/01 12:26:45;;;;;;;0.10;0.10;;;20.70;92.80;;;;;;5050376;28;20029;-76
2022/09/01 12:29:12;;;;;;;0.32;0.32;;;20.70;93.50;;;;;;5034028;28;20044;-78
2022/09/01 12:31:44;;;;;;;0.35;0.20;;;21.10;93.20;;;;;;5013596;28;20156;-77
2022/09/01 12:34:24;;;;;;;0.68;0.68;;;21.60;91.80;;;;;;5050409;28;20070;-84
2022/09/01 12:37:07;;;;;;;0.10;0.10;;;21.50;91.50;;;;;;5022307;28;20048;-79
2022/09/01 12:39:53;;;;;;;0.20;0.20;;;21.60;92.20;;;;;;5054699;28;20059;-78
2022/09/01 12:42:18;;;;;;;0.85;0.82;;;21.70;91.80;;;;;;5037123;28;20036;-79
2022/09/01 12:45:06;;;;;;;0.35;0.35;;;21.80;91.10;;;;;;5036466;28;20388;-78
2022/09/01 12:47:32;;;;;;;0.32;0.32;;;21.70;88.40;;;;;;5034723;28;20049;-77
2022/09/01 12:49:59;;;;;;;0.28;0.28;;;21.70;90.20;;;;;;5035220;28;20056;-78
2022/09/01 12:52:27;;;;;;;2.72;1.75;;;21.70;90.50;;;;;;5021479;28;20029;-78
2022/09/01 12:55:02;;;;;;;2.75;2.08;;;21.70;90.50;;;;;;5021097;28;20036;-78
2022/09/01 12:57:34;;;;;;;1.58;1.48;;;21.80;91.50;;;;;;5022954;28;20037;-77
2022/09/01 13:00:10;;;;;;;1.20;1.10;;;21.60;92.10;;;;;;5055470;28;20656;-78
2022/09/01 13:02:44;;;;;;;0.20;0.20;;;21.30;92.40;;;;;;5039382;28;20099;-79
2022/09/01 13:05:22;;;;;;;3.30;1.65;;;21.10;93.00;;;;;;5020870;28;20119;-78
2022/09/01 13:07:48;;;;;;;0.57;0.57;;;20.90;93.80;;;;;;5038219;28;20224;-78
2022/09/01 13:10:14;;;;;;;0.15;0.15;;;20.80;93.30;;;;;;5038678;28;20028;-79
2022/09/01 13:12:41;;;;;;;3.08;1.52;;;20.60;93.20;;;;;;5046235;28;20040;-85
2022/09/01 13:15:08;;;;;;;0.38;0.38;;;20.60;93.20;;;;;;5042852;28;20028;-86